Time;durP1;ratioP1;P1;durP2;ratioP2;P2;SDS_P1;SDS_P2;PMS_P1;PMS_P2;Temp;Humidity;BMP_temperature;BMP_pressure;BME280_temperature;BME280_humidity;BME280_pressure;Samples;Min_cycle;Max_cycle;Signal;HPM_P1;HPM_P2
2021/10/21 00:02:19;;;;;;;;;0.00;0.00;;;;;;;;5061599;28;8933;-77
2021/10/21 00:04:47;;;;;;;;;0.00;0.00;;;;;;;;5066666;28;8896;-76
2021/10/21 00:07:16;;;;;;;;;0.00;0.00;;;;;;;;5063436;28;8881;-80
2021/10/21 00:09:43;;;;;;;;;0.00;0.00;;;;;;;;5062646;28;8867;-77
2021/10/21 00:12:10;;;;;;;;;0.00;0.00;;;;;;;;5063269;28;8865;-74
2021/10/21 00:14:38;;;;;;;;;0.00;0.00;;;;;;;;5060327;28;8874;-74
2021/10/21 00:17:05;;;;;;;;;0.00;0.00;;;;;;;;5063996;28;8881;-77
2021/10/21 00:19:33;;;;;;;;;1.00;0.00;;;;;;;;5062271;28;8870;-79
2021/10/21 00:22:00;;;;;;;;;0.00;0.00;;;;;;;;5063367;28;8981;-77
2021/10/21 00:24:29;;;;;;;;;0.75;0.00;;;;;;;;5062985;28;9661;-75
2021/10/21 00:26:56;;;;;;;;;2.50;1.00;;;;;;;;5059885;28;8886;-75
2021/10/21 00:29:23;;;;;;;;;1.50;0.75;;;;;;;;5062461;28;8961;-76
2021/10/21 00:31:50;;;;;;;;;1.25;0.00;;;;;;;;5060793;28;8934;-77
2021/10/21 00:34:18;;;;;;;;;0.00;0.00;;;;;;;;5063570;28;8874;-77
2021/10/21 00:36:45;;;;;;;;;1.00;1.00;;;;;;;;5061867;28;8870;-79
2021/10/21 00:39:12;;;;;;;;;0.00;0.00;;;;;;;;5063289;28;8863;-75
2021/10/21 00:41:41;;;;;;;;;0.00;0.00;;;;;;;;5062767;28;8859;-75
2021/10/21 00:44:11;;;;;;;;;3.00;1.00;;;;;;;;5062179;28;8975;-74
2021/10/21 00:46:39;;;;;;;;;0.75;0.00;;;;;;;;5062966;28;8919;-79
2021/10/21 00:49:07;;;;;;;;;1.00;0.00;;;;;;;;5061053;28;8857;-80
2021/10/21 00:51:35;;;;;;;;;0.00;0.00;;;;;;;;5061712;28;8870;-77
2021/10/21 00:54:06;;;;;;;;;0.75;0.75;;;;;;;;5060480;28;8895;-78
2021/10/21 00:56:34;;;;;;;;;0.00;0.00;;;;;;;;5062593;28;8980;-77
2021/10/21 00:59:04;;;;;;;;;0.00;0.00;;;;;;;;5062822;28;8867;-80
2021/10/21 01:01:34;;;;;;;;;2.00;0.00;;;;;;;;5064403;28;8834;-79
2021/10/21 01:04:01;;;;;;;;;1.75;0.00;;;;;;;;5065969;28;8847;-77
2021/10/21 01:06:28;;;;;;;;;0.50;0.00;;;;;;;;5064942;28;8876;-80
2021/10/21 01:08:56;;;;;;;;;1.25;0.00;;;;;;;;5065151;28;9001;-80
2021/10/21 01:11:24;;;;;;;;;0.00;0.00;;;;;;;;5061853;28;8867;-77
2021/10/21 01:13:51;;;;;;;;;0.00;0.00;;;;;;;;5065483;28;8863;-78
2021/10/21 01:16:20;;;;;;;;;0.00;0.00;;;;;;;;5064953;28;8870;-78
2021/10/21 01:18:48;;;;;;;;;0.00;0.00;;;;;;;;5063109;28;8862;-78
2021/10/21 01:21:19;;;;;;;;;0.00;0.00;;;;;;;;5065814;28;9712;-77
2021/10/21 01:23:46;;;;;;;;;3.00;0.00;;;;;;;;5065370;28;8874;-75
2021/10/21 01:26:14;;;;;;;;;0.25;0.00;;;;;;;;5065780;28;8913;-76
2021/10/21 01:28:43;;;;;;;;;0.00;0.00;;;;;;;;5064245;28;8874;-76
2021/10/21 01:31:12;;;;;;;;;0.00;0.00;;;;;;;;5063432;28;8847;-77
2021/10/21 01:33:39;;;;;;;;;0.00;0.00;;;;;;;;5064739;28;9012;-74
2021/10/21 01:36:09;;;;;;;;;0.25;0.00;;;;;;;;5064509;28;8877;-78
2021/10/21 01:38:49;;;;;;;;;0.00;0.00;;;;;;;;5113913;27;13548;-77
2021/10/21 01:41:16;;;;;;;;;0.00;0.00;;;;;;;;5104216;28;8987;-76
2021/10/21 01:43:44;;;;;;;;;0.00;0.00;;;;;;;;5098339;28;8868;-77
2021/10/21 01:46:11;;;;;;;;;0.00;0.00;;;;;;;;5099647;28;8836;-77
2021/10/21 01:48:39;;;;;;;;;0.00;0.00;;;;;;;;5101792;27;9527;-78
2021/10/21 01:51:06;;;;;;;;;0.00;0.00;;;;;;;;5102278;28;8876;-75
2021/10/21 01:53:34;;;;;;;;;0.00;0.00;;;;;;;;5097095;27;8953;-75
2021/10/21 01:56:02;;;;;;;;;0.00;0.00;;;;;;;;5097819;28;8874;-75
2021/10/21 01:58:30;;;;;;;;;1.00;0.00;;;;;;;;5092405;28;8982;-77
2021/10/21 02:00:58;;;;;;;;;0.00;0.00;;;;;;;;5088107;27;8979;-77
2021/10/21 02:03:25;;;;;;;;;0.00;0.00;;;;;;;;5060049;28;8951;-75
2021/10/21 02:05:52;;;;;;;;;0.00;0.00;;;;;;;;5054456;28;9156;-78
2021/10/21 02:08:20;;;;;;;;;0.00;0.00;;;;;;;;5059670;28;9103;-77
2021/10/21 02:10:47;;;;;;;;;0.00;0.00;;;;;;;;5070079;28;9036;-76
2021/10/21 02:13:16;;;;;;;;;0.00;0.00;;;;;;;;5064608;28;8960;-76
2021/10/21 02:15:44;;;;;;;;;0.00;0.00;;;;;;;;5059773;28;8949;-76
2021/10/21 02:18:11;;;;;;;;;0.00;0.00;;;;;;;;5055711;28;9010;-75
2021/10/21 02:20:38;;;;;;;;;0.00;0.00;;;;;;;;5058989;28;9051;-77
2021/10/21 02:23:06;;;;;;;;;1.00;0.00;;;;;;;;5059932;28;8980;-76
2021/10/21 02:25:33;;;;;;;;;0.00;0.00;;;;;;;;5058227;28;8967;-81
2021/10/21 02:28:01;;;;;;;;;0.00;0.00;;;;;;;;5068978;28;9847;-77
2021/10/21 02:30:29;;;;;;;;;0.00;0.00;;;;;;;;5059487;28;9303;-75
2021/10/21 02:32:56;;;;;;;;;0.00;0.00;;;;;;;;5059098;28;9104;-75
2021/10/21 02:35:24;;;;;;;;;0.00;0.00;;;;;;;;5059804;28;9951;-74
2021/10/21 02:37:51;;;;;;;;;0.00;0.00;;;;;;;;5062106;28;9175;-77
2021/10/21 02:40:18;;;;;;;;;0.00;0.00;;;;;;;;5063866;28;9001;-76
2021/10/21 02:42:46;;;;;;;;;0.00;0.00;;;;;;;;5060302;28;9175;-78
2021/10/21 02:45:13;;;;;;;;;0.00;0.00;;;;;;;;5064517;28;9354;-76
2021/10/21 02:47:44;;;;;;;;;0.00;0.00;;;;;;;;5071053;28;9184;-77
2021/10/21 02:50:12;;;;;;;;;0.00;0.00;;;;;;;;5045065;28;9125;-76
2021/10/21 02:52:39;;;;;;;;;0.00;0.00;;;;;;;;5047380;28;9356;-76
2021/10/21 02:55:07;;;;;;;;;0.00;0.00;;;;;;;;5040015;28;9331;-79
2021/10/21 02:57:35;;;;;;;;;0.00;0.00;;;;;;;;5044580;28;10042;-79
2021/10/21 03:00:02;;;;;;;;;0.67;0.00;;;;;;;;5028378;28;9416;-80
2021/10/21 03:02:29;;;;;;;;;0.33;0.00;;;;;;;;5033503;28;9275;-75
2021/10/21 03:04:59;;;;;;;;;0.00;0.00;;;;;;;;5050458;28;9357;-75
2021/10/21 03:07:27;;;;;;;;;0.00;0.00;;;;;;;;5046777;28;9581;-77
2021/10/21 03:09:54;;;;;;;;;0.00;0.00;;;;;;;;5029681;28;9423;-78
2021/10/21 03:12:21;;;;;;;;;0.00;0.00;;;;;;;;5026318;28;9598;-75
2021/10/21 03:14:49;;;;;;;;;0.00;0.00;;;;;;;;5048894;28;9698;-74
2021/10/21 03:17:16;;;;;;;;;0.50;0.00;;;;;;;;5045172;28;9613;-78
2021/10/21 03:19:43;;;;;;;;;0.00;0.00;;;;;;;;5054675;28;9643;-77
2021/10/21 03:22:12;;;;;;;;;0.00;0.00;;;;;;;;5047860;28;9793;-74
2021/10/21 03:24:39;;;;;;;;;1.00;0.00;;;;;;;;5047604;28;9633;-78
2021/10/21 03:27:07;;;;;;;;;1.00;0.00;;;;;;;;5050391;28;9788;-76
2021/10/21 03:29:35;;;;;;;;;0.00;0.00;;;;;;;;5048368;28;9738;-76
2021/10/21 03:32:02;;;;;;;;;0.00;0.00;;;;;;;;5049691;28;10872;-76
2021/10/21 03:34:31;;;;;;;;;0.00;0.00;;;;;;;;5045309;28;9743;-75
2021/10/21 03:36:58;;;;;;;;;0.00;0.00;;;;;;;;5034758;28;9754;-78
2021/10/21 03:39:27;;;;;;;;;1.00;0.00;;;;;;;;5045257;28;9721;-76
2021/10/21 03:41:55;;;;;;;;;0.50;0.00;;;;;;;;5026713;28;9909;-76
2021/10/21 03:44:22;;;;;;;;;0.00;0.00;;;;;;;;5056802;28;10269;-76
2021/10/21 03:46:49;;;;;;;;;0.00;0.00;;;;;;;;5049370;28;9742;-79
2021/10/21 03:49:17;;;;;;;;;0.00;0.00;;;;;;;;5047467;28;9686;-78
2021/10/21 03:51:44;;;;;;;;;0.00;0.00;;;;;;;;5047748;28;9692;-79
2021/10/21 03:54:13;;;;;;;;;0.00;0.00;;;;;;;;5054492;28;9718;-76
2021/10/21 03:56:43;;;;;;;;;0.00;0.00;;;;;;;;5047289;28;9816;-76
2021/10/21 03:59:11;;;;;;;;;0.00;0.00;;;;;;;;5038670;28;10641;-76
2021/10/21 04:01:39;;;;;;;;;0.00;0.00;;;;;;;;5046340;28;9777;-79
2021/10/21 04:04:06;;;;;;;;;0.00;0.00;;;;;;;;5060890;28;9961;-78
2021/10/21 04:06:34;;;;;;;;;0.75;0.00;;;;;;;;5037471;28;9861;-81
2021/10/21 04:09:01;;;;;;;;;0.00;0.00;;;;;;;;5046553;28;9971;-78
2021/10/21 04:11:29;;;;;;;;;0.00;0.00;;;;;;;;5043813;28;9707;-76
2021/10/21 04:13:58;;;;;;;;;0.00;0.00;;;;;;;;5049248;28;10431;-79
2021/10/21 04:16:25;;;;;;;;;0.00;0.00;;;;;;;;5045680;28;9766;-75
2021/10/21 04:18:52;;;;;;;;;0.75;0.00;;;;;;;;5057650;28;9790;-77
2021/10/21 04:21:20;;;;;;;;;0.00;0.00;;;;;;;;5020819;28;10049;-76
2021/10/21 04:23:47;;;;;;;;;0.00;0.00;;;;;;;;5051685;28;9927;-76
2021/10/21 04:26:15;;;;;;;;;0.00;0.00;;;;;;;;5056439;28;10045;-77
2021/10/21 04:28:43;;;;;;;;;0.00;0.00;;;;;;;;5042407;28;10843;-79
2021/10/21 04:31:11;;;;;;;;;0.25;0.00;;;;;;;;5041964;28;10082;-74
2021/10/21 04:33:38;;;;;;;;;0.00;0.00;;;;;;;;5020588;28;10030;-77
2021/10/21 04:36:06;;;;;;;;;0.00;0.00;;;;;;;;5043685;28;10807;-75
2021/10/21 04:38:33;;;;;;;;;0.00;0.00;;;;;;;;5043252;28;10084;-76
2021/10/21 04:41:01;;;;;;;;;0.00;0.00;;;;;;;;5044498;28;10038;-75
2021/10/21 04:43:28;;;;;;;;;0.00;0.00;;;;;;;;5041911;28;10817;-78
2021/10/21 04:45:55;;;;;;;;;0.25;0.00;;;;;;;;5043000;28;10101;-78
2021/10/21 04:48:24;;;;;;;;;1.00;0.00;;;;;;;;5028470;28;10120;-76
2021/10/21 04:50:51;;;;;;;;;0.00;0.00;;;;;;;;5044918;28;10089;-77
2021/10/21 04:53:19;;;;;;;;;0.00;0.00;;;;;;;;5026724;28;11149;-75
2021/10/21 04:55:46;;;;;;;;;0.00;0.00;;;;;;;;5024420;28;10167;-75
2021/10/21 04:58:14;;;;;;;;;0.00;0.00;;;;;;;;5022492;28;10139;-76
2021/10/21 05:00:41;;;;;;;;;0.00;0.00;;;;;;;;5041948;28;11016;-76
2021/10/21 05:03:09;;;;;;;;;0.00;0.00;;;;;;;;5046774;28;10162;-76
2021/10/21 05:05:38;;;;;;;;;0.00;0.00;;;;;;;;5047719;28;10002;-75
2021/10/21 05:08:05;;;;;;;;;0.00;0.00;;;;;;;;5042804;28;10112;-77
2021/10/21 05:10:33;;;;;;;;;3.00;1.00;;;;;;;;5055215;28;10171;-76
2021/10/21 05:13:00;;;;;;;;;2.25;0.00;;;;;;;;5041973;28;10251;-77
2021/10/21 05:15:28;;;;;;;;;2.00;0.00;;;;;;;;5043725;28;10974;-76
2021/10/21 05:17:56;;;;;;;;;0.00;0.00;;;;;;;;5045261;28;10240;-79
2021/10/21 05:20:23;;;;;;;;;0.00;0.00;;;;;;;;5044445;28;10153;-75
2021/10/21 05:22:52;;;;;;;;;0.00;0.00;;;;;;;;5056737;28;10185;-76
2021/10/21 05:25:19;;;;;;;;;0.75;0.00;;;;;;;;5042401;28;10179;-74
2021/10/21 05:27:46;;;;;;;;;0.00;0.00;;;;;;;;5043044;28;10215;-78
2021/10/21 05:30:14;;;;;;;;;0.25;0.25;;;;;;;;5051148;28;10088;-78
2021/10/21 05:32:41;;;;;;;;;4.00;1.00;;;;;;;;5044182;28;10144;-79
2021/10/21 05:35:09;;;;;;;;;0.50;0.00;;;;;;;;5042110;28;10177;-78
2021/10/21 05:37:37;;;;;;;;;0.00;0.00;;;;;;;;5031854;28;10231;-82
2021/10/21 05:40:07;;;;;;;;;0.50;0.00;;;;;;;;5038162;28;11401;-80
2021/10/21 05:42:35;;;;;;;;;0.00;0.00;;;;;;;;5037423;28;10279;-78
2021/10/21 05:45:03;;;;;;;;;1.00;1.00;;;;;;;;5039835;28;10368;-77
2021/10/21 05:47:31;;;;;;;;;0.00;0.00;;;;;;;;5047941;28;10230;-72
2021/10/21 05:49:58;;;;;;;;;1.00;0.00;;;;;;;;5041525;28;10342;-76
2021/10/21 05:52:25;;;;;;;;;3.00;1.00;;;;;;;;5041173;28;10394;-75
2021/10/21 05:54:53;;;;;;;;;0.00;0.00;;;;;;;;5041737;28;10432;-72
2021/10/21 05:57:22;;;;;;;;;0.00;0.00;;;;;;;;5042136;28;10263;-73
2021/10/21 05:59:49;;;;;;;;;1.00;0.00;;;;;;;;5040841;28;10242;-73
2021/10/21 06:02:17;;;;;;;;;0.00;0.00;;;;;;;;5063423;28;11006;-73
2021/10/21 06:04:44;;;;;;;;;1.00;0.00;;;;;;;;5043108;28;10410;-72
2021/10/21 06:07:11;;;;;;;;;0.00;0.00;;;;;;;;5050454;28;11083;-73
2021/10/21 06:09:38;;;;;;;;;0.00;0.00;;;;;;;;5041044;28;10381;-76
2021/10/21 06:12:07;;;;;;;;;0.00;0.00;;;;;;;;5048413;28;10235;-75
2021/10/21 06:14:36;;;;;;;;;0.00;0.00;;;;;;;;5049035;28;10306;-74
2021/10/21 06:17:03;;;;;;;;;0.00;0.00;;;;;;;;5038297;28;10336;-74
2021/10/21 06:19:31;;;;;;;;;0.00;0.00;;;;;;;;5041894;28;10257;-75
2021/10/21 06:22:00;;;;;;;;;0.00;0.00;;;;;;;;5045597;28;10810;-75
2021/10/21 06:24:27;;;;;;;;;0.00;0.00;;;;;;;;5045154;28;10164;-74
2021/10/21 06:26:56;;;;;;;;;2.00;0.00;;;;;;;;5055787;28;10331;-75
2021/10/21 06:29:23;;;;;;;;;2.00;0.50;;;;;;;;5051755;28;10396;-75
2021/10/21 06:31:52;;;;;;;;;0.00;0.00;;;;;;;;5041493;28;10331;-75
2021/10/21 06:34:19;;;;;;;;;0.00;0.00;;;;;;;;5046257;28;10381;-76
2021/10/21 06:36:46;;;;;;;;;2.25;1.00;;;;;;;;5055254;28;10223;-74
2021/10/21 06:39:14;;;;;;;;;2.00;0.75;;;;;;;;5043756;28;10480;-76
2021/10/21 06:41:41;;;;;;;;;1.00;1.00;;;;;;;;5043685;28;11082;-75
2021/10/21 06:44:09;;;;;;;;;0.00;0.00;;;;;;;;5038112;28;10577;-75
2021/10/21 06:46:38;;;;;;;;;0.00;0.00;;;;;;;;5046036;28;10236;-76
2021/10/21 06:49:06;;;;;;;;;1.25;1.25;;;;;;;;5042174;28;10437;-74
2021/10/21 06:51:34;;;;;;;;;1.00;1.00;;;;;;;;5046601;28;10442;-75
2021/10/21 06:54:01;;;;;;;;;1.00;1.00;;;;;;;;5045025;28;11132;-75
2021/10/21 06:56:29;;;;;;;;;2.75;0.00;;;;;;;;5057568;28;10375;-75
2021/10/21 06:58:56;;;;;;;;;1.50;0.00;;;;;;;;5051594;28;10250;-74
2021/10/21 07:01:23;;;;;;;;;0.00;0.00;;;;;;;;5045046;28;10205;-74
2021/10/21 07:03:50;;;;;;;;;0.00;0.00;;;;;;;;5044938;28;10179;-74
2021/10/21 07:06:19;;;;;;;;;0.00;0.00;;;;;;;;5040587;28;11138;-73
2021/10/21 07:08:47;;;;;;;;;2.00;0.25;;;;;;;;5042835;28;10189;-73
2021/10/21 07:11:14;;;;;;;;;1.00;1.00;;;;;;;;5061975;28;10014;-73
2021/10/21 07:13:41;;;;;;;;;2.00;2.00;;;;;;;;5045813;28;10168;-73
2021/10/21 07:16:08;;;;;;;;;0.00;0.00;;;;;;;;5047862;28;10335;-73
2021/10/21 07:18:35;;;;;;;;;0.50;0.00;;;;;;;;5046171;28;10227;-73
2021/10/21 07:21:03;;;;;;;;;2.25;0.00;;;;;;;;5055685;28;10099;-73
2021/10/21 07:23:32;;;;;;;;;0.00;0.00;;;;;;;;5036602;28;10962;-73
2021/10/21 07:25:59;;;;;;;;;1.00;1.00;;;;;;;;5062797;28;10057;-74
2021/10/21 07:28:26;;;;;;;;;1.75;1.00;;;;;;;;5035348;28;10080;-73
2021/10/21 07:30:57;;;;;;;;;1.25;1.25;;;;;;;;5054226;28;10034;-74
2021/10/21 07:33:24;;;;;;;;;0.00;0.00;;;;;;;;5056773;28;10163;-73
2021/10/21 07:35:52;;;;;;;;;0.00;0.00;;;;;;;;5061396;28;10175;-73
2021/10/21 07:38:19;;;;;;;;;0.25;0.25;;;;;;;;5043971;28;10165;-74
2021/10/21 07:40:48;;;;;;;;;2.00;0.00;;;;;;;;5054087;28;9938;-73
2021/10/21 07:43:15;;;;;;;;;0.75;0.75;;;;;;;;5047406;28;10166;-74
2021/10/21 07:45:43;;;;;;;;;1.00;1.00;;;;;;;;5040265;28;10152;-74
2021/10/21 07:48:11;;;;;;;;;0.00;0.00;;;;;;;;5051254;28;10027;-73
2021/10/21 07:50:39;;;;;;;;;0.75;0.75;;;;;;;;5065772;28;9884;-74
2021/10/21 07:53:07;;;;;;;;;2.75;2.50;;;;;;;;5047138;28;9968;-73
2021/10/21 07:55:34;;;;;;;;;0.25;0.25;;;;;;;;5033913;28;10025;-73
2021/10/21 07:58:03;;;;;;;;;2.75;1.00;;;;;;;;5039335;28;9883;-73
2021/10/21 08:00:32;;;;;;;;;2.00;0.00;;;;;;;;5054312;28;9783;-74
2021/10/21 08:03:00;;;;;;;;;2.00;0.00;;;;;;;;5065138;28;9912;-73
2021/10/21 08:05:27;;;;;;;;;2.00;0.00;;;;;;;;5052109;28;9771;-74
2021/10/21 08:07:55;;;;;;;;;1.75;0.50;;;;;;;;5061800;28;9639;-74
2021/10/21 08:10:23;;;;;;;;;2.00;0.00;;;;;;;;5053901;28;9720;-73
2021/10/21 08:12:51;;;;;;;;;2.50;1.25;;;;;;;;5040637;28;9597;-75
2021/10/21 08:15:21;;;;;;;;;2.00;1.00;;;;;;;;5051541;28;9750;-73
2021/10/21 08:17:50;;;;;;;;;4.50;2.00;;;;;;;;5045284;28;10432;-74
2021/10/21 08:20:17;;;;;;;;;6.25;3.00;;;;;;;;5052971;28;9791;-74
2021/10/21 08:22:46;;;;;;;;;1.00;1.00;;;;;;;;5061109;28;9729;-75
2021/10/21 08:25:15;;;;;;;;;1.00;1.00;;;;;;;;5057345;28;9696;-74
2021/10/21 08:27:43;;;;;;;;;5.00;0.00;;;;;;;;5041853;28;9561;-75
2021/10/21 08:30:12;;;;;;;;;0.00;0.00;;;;;;;;5065661;28;9588;-74
2021/10/21 08:32:41;;;;;;;;;3.00;1.50;;;;;;;;5029674;28;9487;-75
2021/10/21 08:35:14;;;;;;;;;2.00;0.00;;;;;;;;5041445;28;9561;-75
2021/10/21 08:37:41;;;;;;;;;2.00;1.67;;;;;;;;5048072;28;9343;-75
2021/10/21 08:40:09;;;;;;;;;0.67;0.67;;;;;;;;5041694;28;9425;-74
2021/10/21 08:42:37;;;;;;;;;1.00;1.00;;;;;;;;5047628;28;9326;-75
2021/10/21 08:45:06;;;;;;;;;2.67;1.00;;;;;;;;5042932;28;9444;-74
2021/10/21 08:47:34;;;;;;;;;3.00;1.67;;;;;;;;5031865;28;10241;-74
2021/10/21 08:50:06;;;;;;;;;0.00;0.00;;;;;;;;5050618;28;10593;-75
2021/10/21 08:52:33;;;;;;;;;1.00;1.00;;;;;;;;5057868;28;9116;-76
2021/10/21 08:55:00;;;;;;;;;1.00;1.00;;;;;;;;5038874;28;9301;-75
2021/10/21 08:57:28;;;;;;;;;1.33;0.00;;;;;;;;5022027;28;9265;-75
2021/10/21 08:59:58;;;;;;;;;0.67;0.00;;;;;;;;5035481;28;9092;-75
2021/10/21 09:02:35;;;;;;;;;5.00;1.00;;;;;;;;5043615;28;9034;-75
2021/10/21 09:05:12;;;;;;;;;0.33;0.33;;;;;;;;5046317;28;8998;-77
2021/10/21 09:07:58;;;;;;;;;4.00;1.00;;;;;;;;5052652;28;9048;-74
2021/10/21 09:10:28;;;;;;;;;1.00;1.00;;;;;;;;5049927;28;8945;-74
2021/10/21 09:12:55;;;;;;;;;1.25;1.25;;;;;;;;5044483;28;8981;-76
2021/10/21 09:15:24;;;;;;;;;1.00;1.00;;;;;;;;5062800;28;8906;-74
2021/10/21 09:17:53;;;;;;;;;3.00;1.00;;;;;;;;5060124;28;9094;-75
2021/10/21 09:20:30;;;;;;;;;1.00;1.00;;;;;;;;5058371;28;8872;-76
2021/10/21 09:22:59;;;;;;;;;2.75;0.00;;;;;;;;5049412;28;8847;-74
2021/10/21 09:25:29;;;;;;;;;1.00;1.00;;;;;;;;5049597;28;8855;-75
2021/10/21 09:27:58;;;;;;;;;4.00;1.00;;;;;;;;5043267;28;8948;-74
2021/10/21 09:30:27;;;;;;;;;1.00;0.25;;;;;;;;5039243;28;8771;-74
2021/10/21 09:32:55;;;;;;;;;0.00;0.00;;;;;;;;5035862;28;8866;-74
2021/10/21 09:35:23;;;;;;;;;0.75;0.75;;;;;;;;5046472;28;8884;-74
2021/10/21 09:37:55;;;;;;;;;0.00;0.00;;;;;;;;5036607;28;8845;-74
2021/10/21 09:40:27;;;;;;;;;2.75;1.00;;;;;;;;5050023;28;8883;-74
2021/10/21 09:42:59;;;;;;;;;0.00;0.00;;;;;;;;5056902;28;8878;-74
2021/10/21 09:45:28;;;;;;;;;0.00;0.00;;;;;;;;5042383;28;8981;-72
2021/10/21 09:47:57;;;;;;;;;0.00;0.00;;;;;;;;5051661;28;8902;-73
2021/10/21 09:50:28;;;;;;;;;0.75;0.25;;;;;;;;5054541;28;8879;-74
2021/10/21 09:53:08;;;;;;;;;0.00;0.00;;;;;;;;5045401;28;8888;-74
2021/10/21 09:55:37;;;;;;;;;0.00;0.00;;;;;;;;5040734;28;8880;-75
2021/10/21 09:58:06;;;;;;;;;3.00;1.25;;;;;;;;5041472;28;8978;-74
2021/10/21 10:00:36;;;;;;;;;3.00;0.00;;;;;;;;5056735;28;8759;-74
2021/10/21 10:03:14;;;;;;;;;1.00;1.00;;;;;;;;5039221;28;8877;-74
2021/10/21 10:05:49;;;;;;;;;3.00;0.75;;;;;;;;5044517;28;9444;-75
2021/10/21 10:08:19;;;;;;;;;1.00;1.00;;;;;;;;5048299;28;9004;-74
2021/10/21 10:10:49;;;;;;;;;2.25;0.75;;;;;;;;5031441;28;8906;-75
2021/10/21 10:13:17;;;;;;;;;2.50;0.25;;;;;;;;5042520;28;8890;-74
2021/10/21 10:15:46;;;;;;;;;0.00;0.00;;;;;;;;5058520;28;8879;-74
2021/10/21 10:18:18;;;;;;;;;1.00;1.00;;;;;;;;5042865;28;8914;-73
2021/10/21 10:20:46;;;;;;;;;0.00;0.00;;;;;;;;5045372;28;8877;-74
2021/10/21 10:23:14;;;;;;;;;0.00;0.00;;;;;;;;5045632;28;9019;-74
2021/10/21 10:25:52;;;;;;;;;0.00;0.00;;;;;;;;5055228;28;9672;-74
2021/10/21 10:28:20;;;;;;;;;1.25;0.00;;;;;;;;5051976;28;8897;-73
2021/10/21 10:30:50;;;;;;;;;0.00;0.00;;;;;;;;5039174;28;8857;-74
2021/10/21 10:33:41;;;;;;;;;1.00;1.00;;;;;;;;5057111;28;8870;-75
2021/10/21 10:36:26;;;;;;;;;0.00;0.00;;;;;;;;5045135;28;8861;-75
2021/10/21 10:38:54;;;;;;;;;0.50;0.50;;;;;;;;5041635;28;9645;-74
2021/10/21 10:41:54;;;;;;;;;1.00;1.00;;;;;;;;5049477;28;9643;-74
2021/10/21 10:45:00;;;;;;;;;1.50;0.00;;;;;;;;5045920;28;8886;-75
2021/10/21 10:47:44;;;;;;;;;0.00;0.00;;;;;;;;5048483;28;8904;-75
2021/10/21 10:50:30;;;;;;;;;1.25;0.25;;;;;;;;5038234;28;8982;-74
2021/10/21 10:52:59;;;;;;;;;0.75;0.00;;;;;;;;5035498;28;8849;-75
2021/10/21 10:55:28;;;;;;;;;2.00;0.25;;;;;;;;5043691;28;8977;-75
2021/10/21 10:58:01;;;;;;;;;0.00;0.00;;;;;;;;5046378;28;8881;-75
2021/10/21 11:00:38;;;;;;;;;0.50;0.00;;;;;;;;5043118;28;8847;-74
2021/10/21 11:03:06;;;;;;;;;0.00;0.00;;;;;;;;5049691;28;8946;-75
2021/10/21 11:05:55;;;;;;;;;0.00;0.00;;;;;;;;5041601;28;8869;-75
2021/10/21 11:08:22;;;;;;;;;0.25;0.25;;;;;;;;5043539;28;8901;-74
2021/10/21 11:10:55;;;;;;;;;2.00;1.00;;;;;;;;5044695;28;8845;-74
2021/10/21 11:13:40;;;;;;;;;0.00;0.00;;;;;;;;5047440;28;8886;-75
2021/10/21 11:16:38;;;;;;;;;1.25;1.25;;;;;;;;5044501;28;8954;-74
2021/10/21 11:19:07;;;;;;;;;0.00;0.00;;;;;;;;5043328;28;8909;-74
2021/10/21 11:21:52;;;;;;;;;1.00;1.00;;;;;;;;5045428;28;8883;-75
2021/10/21 11:24:59;;;;;;;;;0.00;0.00;;;;;;;;5046824;28;8883;-74
2021/10/21 11:27:28;;;;;;;;;1.75;0.50;;;;;;;;5040587;28;8866;-75
2021/10/21 11:30:02;;;;;;;;;0.75;0.00;;;;;;;;5039984;28;9630;-74
2021/10/21 11:32:33;;;;;;;;;2.00;0.00;;;;;;;;5052890;28;8811;-74
2021/10/21 11:35:00;;;;;;;;;0.00;0.00;;;;;;;;5044660;28;8861;-75
2021/10/21 11:37:39;;;;;;;;;0.00;0.00;;;;;;;;5049807;28;8908;-73
2021/10/21 11:40:08;;;;;;;;;3.00;1.00;;;;;;;;5046767;28;8888;-73
2021/10/21 11:42:36;;;;;;;;;1.00;1.00;;;;;;;;5050632;28;8872;-74
2021/10/21 11:45:07;;;;;;;;;2.50;0.00;;;;;;;;5044183;28;9617;-75
2021/10/21 11:47:36;;;;;;;;;0.00;0.00;;;;;;;;5046424;28;9002;-74
2021/10/21 11:50:05;;;;;;;;;1.67;1.67;;;;;;;;5052358;28;8878;-74
2021/10/21 11:52:43;;;;;;;;;2.00;0.25;;;;;;;;5045874;28;8942;-74
2021/10/21 11:55:20;;;;;;;;;0.50;0.50;;;;;;;;5045637;28;8969;-74
2021/10/21 11:57:48;;;;;;;;;1.75;0.75;;;;;;;;5032635;28;8848;-73
2021/10/21 12:00:24;;;;;;;;;2.75;0.75;;;;;;;;5043726;28;8983;-74
2021/10/21 12:02:55;;;;;;;;;2.00;1.00;;;;;;;;5053040;28;8955;-74
2021/10/21 12:05:27;;;;;;;;;2.00;0.00;;;;;;;;5048951;28;8960;-73
2021/10/21 12:07:55;;;;;;;;;0.67;0.67;;;;;;;;5052642;28;9141;-73
2021/10/21 12:10:31;;;;;;;;;1.00;1.00;;;;;;;;5019959;28;9136;-74
2021/10/21 12:12:59;;;;;;;;;3.00;1.00;;;;;;;;5044227;28;9083;-74
2021/10/21 12:15:30;;;;;;;;;0.00;0.00;;;;;;;;5045198;28;9006;-73
2021/10/21 12:17:58;;;;;;;;;1.00;1.00;;;;;;;;5041884;28;8968;-73
2021/10/21 12:20:40;;;;;;;;;0.00;0.00;;;;;;;;5028529;28;9093;-73
2021/10/21 12:23:19;;;;;;;;;1.25;1.25;;;;;;;;5057665;28;9755;-73
2021/10/21 12:25:51;;;;;;;;;0.67;0.00;;;;;;;;5057214;28;8904;-73
2021/10/21 12:28:19;;;;;;;;;0.00;0.00;;;;;;;;5038650;28;9790;-76
2021/10/21 12:30:49;;;;;;;;;0.00;0.00;;;;;;;;5049781;28;8945;-75
2021/10/21 12:33:19;;;;;;;;;1.00;1.00;;;;;;;;5044606;28;8963;-75
2021/10/21 12:36:19;;;;;;;;;2.67;1.00;;;;;;;;5046625;28;9033;-75
2021/10/21 12:38:50;;;;;;;;;0.67;0.67;;;;;;;;5025796;28;9145;-76
2021/10/21 12:41:17;;;;;;;;;1.75;0.75;;;;;;;;5022612;28;8973;-76
2021/10/21 12:43:58;;;;;;;;;0.00;0.00;;;;;;;;5043033;28;9709;-75
2021/10/21 12:46:28;;;;;;;;;4.50;0.00;;;;;;;;5025784;28;9656;-76
2021/10/21 12:49:09;;;;;;;;;1.25;0.00;;;;;;;;5042362;28;8890;-75
2021/10/21 12:51:38;;;;;;;;;0.00;0.00;;;;;;;;5044120;28;8921;-75
2021/10/21 12:54:05;;;;;;;;;0.00;0.00;;;;;;;;5043672;28;9031;-75
2021/10/21 12:56:34;;;;;;;;;1.00;1.00;;;;;;;;5043269;28;8962;-75
2021/10/21 12:59:03;;;;;;;;;3.00;1.33;;;;;;;;5026093;28;9105;-76
2021/10/21 13:01:59;;;;;;;;;4.00;1.00;;;;;;;;5042928;28;9095;-76
2021/10/21 13:04:46;;;;;;;;;0.00;0.00;;;;;;;;5041387;28;9328;-75
2021/10/21 13:07:16;;;;;;;;;0.00;0.00;;;;;;;;5041981;28;9126;-76
2021/10/21 13:09:43;;;;;;;;;0.00;0.00;;;;;;;;5031035;28;9111;-76
2021/10/21 13:12:15;;;;;;;;;0.00;0.00;;;;;;;;5043996;28;9082;-76
2021/10/21 13:14:43;;;;;;;;;0.33;0.33;;;;;;;;5041914;28;9227;-76
2021/10/21 13:17:12;;;;;;;;;0.00;0.00;;;;;;;;5043790;28;9248;-75
2021/10/21 13:19:39;;;;;;;;;0.00;0.00;;;;;;;;5042055;28;9109;-75
2021/10/21 13:22:07;;;;;;;;;0.00;0.00;;;;;;;;5042987;28;9090;-76
2021/10/21 13:24:34;;;;;;;;;0.00;0.00;;;;;;;;5040935;28;9736;-76
2021/10/21 13:27:03;;;;;;;;;0.00;0.00;;;;;;;;5042753;28;9114;-76
2021/10/21 13:29:30;;;;;;;;;1.00;1.00;;;;;;;;5043085;28;8950;-75
2021/10/21 13:31:58;;;;;;;;;1.00;0.00;;;;;;;;5040797;28;8930;-76
2021/10/21 13:34:27;;;;;;;;;0.00;0.00;;;;;;;;5043331;28;9045;-77
2021/10/21 13:36:55;;;;;;;;;2.00;0.00;;;;;;;;5042972;28;8965;-76
2021/10/21 13:39:22;;;;;;;;;0.00;0.00;;;;;;;;5045069;28;8975;-76
2021/10/21 13:41:50;;;;;;;;;0.00;0.00;;;;;;;;5040619;28;9065;-76
2021/10/21 13:44:17;;;;;;;;;0.00;0.00;;;;;;;;5047177;28;9206;-76
2021/10/21 13:46:44;;;;;;;;;1.00;0.00;;;;;;;;5030493;28;8832;-75
2021/10/21 13:49:12;;;;;;;;;0.00;0.00;;;;;;;;5042986;28;9040;-75
2021/10/21 13:51:40;;;;;;;;;0.00;0.00;;;;;;;;5043569;28;9692;-75
2021/10/21 13:54:08;;;;;;;;;0.00;0.00;;;;;;;;5043535;28;9089;-76
2021/10/21 13:56:35;;;;;;;;;0.67;0.00;;;;;;;;5043310;28;9046;-77
2021/10/21 13:59:16;;;;;;;;;0.00;0.00;;;;;;;;5034868;28;9093;-77
2021/10/21 14:01:44;;;;;;;;;0.00;0.00;;;;;;;;5059548;28;8997;-78
2021/10/21 14:04:12;;;;;;;;;0.33;0.00;;;;;;;;5043404;28;8970;-77
2021/10/21 14:06:41;;;;;;;;;0.00;0.00;;;;;;;;5024917;28;9140;-77
2021/10/21 14:09:09;;;;;;;;;0.00;0.00;;;;;;;;5044554;28;8953;-79
2021/10/21 14:11:37;;;;;;;;;0.00;0.00;;;;;;;;5039350;28;8961;-79
2021/10/21 14:14:07;;;;;;;;;0.00;0.00;;;;;;;;5042675;28;8940;-78
2021/10/21 14:16:35;;;;;;;;;0.67;0.00;;;;;;;;5061353;28;9103;-78
2021/10/21 14:19:03;;;;;;;;;0.33;0.00;;;;;;;;5044230;28;9103;-77
2021/10/21 14:21:31;;;;;;;;;1.00;1.00;;;;;;;;5063801;28;9089;-80
2021/10/21 14:24:02;;;;;;;;;0.67;0.67;;;;;;;;5057137;28;9874;-81
2021/10/21 14:26:32;;;;;;;;;1.00;1.00;;;;;;;;5026651;28;9353;-83
2021/10/21 14:28:59;;;;;;;;;1.00;1.00;;;;;;;;5046480;28;9572;-80
2021/10/21 14:31:27;;;;;;;;;2.00;2.00;;;;;;;;5062528;28;9187;-77
2021/10/21 14:33:54;;;;;;;;;2.00;1.00;;;;;;;;5057531;28;9390;-82
2021/10/21 14:36:21;;;;;;;;;2.33;2.33;;;;;;;;5063209;28;9380;-80
2021/10/21 14:38:49;;;;;;;;;1.00;1.00;;;;;;;;5049687;28;9394;-77
2021/10/21 14:41:20;;;;;;;;;2.50;2.50;;;;;;;;5042283;28;9277;-79
2021/10/21 14:43:48;;;;;;;;;0.00;0.00;;;;;;;;5043652;28;9394;-76
2021/10/21 14:46:15;;;;;;;;;1.00;1.00;;;;;;;;5027947;28;10212;-79
2021/10/21 14:48:44;;;;;;;;;1.00;1.00;;;;;;;;5047545;28;9704;-78
2021/10/21 14:51:11;;;;;;;;;1.75;1.75;;;;;;;;5032292;28;9506;-78
2021/10/21 14:53:39;;;;;;;;;3.00;2.00;;;;;;;;5047031;28;9553;-78
2021/10/21 14:56:06;;;;;;;;;2.00;2.00;;;;;;;;5041649;28;9483;-78
2021/10/21 14:58:35;;;;;;;;;1.00;1.00;;;;;;;;5045618;28;9405;-76
2021/10/21 15:01:03;;;;;;;;;1.00;1.00;;;;;;;;5029467;28;9466;-79
2021/10/21 15:03:33;;;;;;;;;2.00;1.00;;;;;;;;5056205;28;10207;-80
2021/10/21 15:06:09;;;;;;;;;1.00;1.00;;;;;;;;5047185;28;9332;-79
2021/10/21 15:08:58;;;;;;;;;1.00;1.00;;;;;;;;5048114;28;10122;-77